Overview Statistics Trail Chart Weather Telemetry Raw packets
 

This is the latest recevied weather packets stored in our database for station/object WA6OOO. If no packets are shown the sender has not sent any weather packets the latest 10 day(s).

<< 109 110 111 112 113 114 >>
Time Temp. Humidity Pressure Rain* Wind** Luminosity Snow
1787844519 24.44° C 72% 1015.7 hPa 0 mm - 77 W/m² -
1787844214 24.44° C 70% 1015.2 hPa 0 mm - 70 W/m² -
1787843913 24.44° C 73% 1014.8 hPa 0 mm - 76 W/m² -
1787843608 25.56° C 66% 1014.9 hPa 0 mm - 87 W/m² -
1787843305 25.56° C 63% 1015.1 hPa 0 mm - 74 W/m² -
1787843000 25.56° C 62% 1015 hPa 0 mm - 52 W/m² -
1787842700 26.67° C 58% 1014.9 hPa 0 mm - 45 W/m² -
1787842396 26.11° C 59% 1014.5 hPa 0 mm - 42 W/m² -
1787842095 25.56° C 60% 1014.5 hPa 0 mm - 38 W/m² -
1787841790 25° C 62% 1014.9 hPa 0 mm - 34 W/m² -
1787841487 24.44° C 67% 1015.4 hPa 0 mm - 31 W/m² -
1787841185 24.44° C 69% 1015.6 hPa 0 mm - 27 W/m² -
1787840881 24.44° C 71% 1015.7 hPa 0 mm - 20 W/m² -
1787840581 24.44° C 72% 1015.6 hPa 0 mm - 16 W/m² -
1787840277 24.44° C 73% 1015.5 hPa 0 mm - 19 W/m² -
1787839976 23.89° C 74% 1015.5 hPa 0 mm - 21 W/m² -
1787839672 23.89° C 77% 1015.5 hPa 0 mm - 21 W/m² -
1787839372 23.33° C 78% 1015.1 hPa 0 mm - 20 W/m² -
1787839065 22.78° C 80% 1015.1 hPa 0 mm - 19 W/m² -
1787838765 22.78° C 85% 1015 hPa 0 mm - 14 W/m² -
1787838465 22.22° C 87% 1015.2 hPa 0 mm - 9 W/m² -
1787838164 22.22° C 89% 1014.9 hPa 0 mm - 5 W/m² -
1787837859 22.22° C 89% 1014.9 hPa 0 mm - 2 W/m² -
1787837558 22.22° C 90% 1014.8 hPa 0 mm - 2 W/m² -
1787837252 22.22° C 89% 1015 hPa 0 mm - 1 W/m² -

* Rain latest hour (hover to see other rain measurements)
** Current wind speed in m/s (hover to see current wind gust speed)